Nearby METAR Reports

 

KSJC - San Jose, California, USA
Distance from station: NE 14km
Updated: 04/12/2022 20:53
Mostly cloudy
Mostly cloudy
 Wind from SSE
Wind: SSE 6 km/h
Temperature: 11°C
Dew Point: 8°C
Humidity: 82%
Barometer: 1019 hPa
Clouds: Mostly cloudy
Visibility: 16 km
Cloud details: Mostly cloudy 1981 m
Mostly cloudy 5486 m
2022/12/05 04:53 KSJC 050453Z 15003KT 10SM BKN065 BKN180 11/08 A3009 RMK AO2 SLP187 T01110078 $
KNUQ - Moffett Nas/Mtn, California, USA
Distance from station: N 14km
Updated: 04/12/2022 21:15
Overcast
Overcast
 Wind from calm
Wind: Calm
Temperature: 12°C
Dew Point: 9°C
Humidity: 82%
Barometer: 1019 hPa
Clouds: Overcast
Visibility: 16 km
Cloud details: Few Clouds 1036 m
Few Clouds 1250 m
Overcast 1676 m
2022/12/05 05:15 KNUQ 050515Z AUTO 00000KT 10SM FEW034 FEW041 OVC055 12/09 A3009 RMK AO2
 
KPAO - Palo Alto, California, USA
Distance from station: NNW 23km
Updated: 04/12/2022 20:47
Mostly cloudy
Mostly cloudy
 Wind from calm
Wind: Calm
Temperature: 12°C
Dew Point: 8°C
Humidity: 77%
Barometer: 1019.3 hPa
Clouds: Mostly cloudy
Visibility: 16 km
Cloud details: Mostly cloudy 1829 m
2022/12/05 04:47 KPAO 050447Z 00000KT 10SM BKN060 12/08 A3010 RMK LAST
KRHV - San Jose/Reid, California, USA
Distance from station: ENE 19km
Updated: 04/12/2022 20:47
Mostly cloudy
Mostly cloudy
 Wind from calm
Wind: Calm
Temperature: 11°C
Dew Point: 8°C
Humidity: 82%
Barometer: 1019.3 hPa
Clouds: Mostly cloudy
Visibility: 16 km
Cloud details: Partly cloudy 1219 m
Mostly cloudy 4572 m
2022/12/05 04:47 KRHV 050447Z 00000KT 10SM SCT040 BKN150 11/08 A3010
 
KOAK - Oakland, California, USA
Distance from station: NNW 50km
Updated: 04/12/2022 20:53
Mostly cloudy
Mostly cloudy
 Wind from calm
Wind: Calm
Temperature: 11°C
Dew Point: 9°C
Humidity: 88%
Barometer: 1019.3 hPa
Clouds: Mostly cloudy
Visibility: 16 km
Cloud details: Few Clouds 975 m
Partly cloudy 1524 m
Mostly cloudy 6096 m
2022/12/05 04:53 KOAK 050453Z 00000KT 10SM FEW032 SCT050 BKN200 11/09 A3010 RMK AO2 RAE0355 SLP191 P0000 T01060089
KSQL - San Carlos Airpo, California, USA
Distance from station: NW 34km
Updated: 04/12/2022 21:15

 Wind from calm
Wind: Calm
Temperature: 12°C
Dew Point: 9°C
Humidity: 82%
Barometer: 1019 hPa
Visibility: 16 km
2022/12/05 05:15 KSQL 050515Z AUTO 00000KT 10SM 12/09 A3009 RMK AO2 P0003
 
KSFO - San Francisco, California, USA
Distance from station: NW 49km
Updated: 04/12/2022 20:56
Mostly cloudy
Mostly cloudy
 Wind from SSE
Wind: SSE 11 km/h
Temperature: 11°C
Dew Point: 9°C
Humidity: 88%
Barometer: 1018.6 hPa
Clouds: Mostly cloudy
Visibility: 16 km
Cloud details: Few Clouds 457 m
Partly cloudy 1219 m
Mostly cloudy 4572 m
2022/12/05 04:56 KSFO 050456Z 16006KT 10SM FEW015 SCT040 BKN150 11/09 A3008 RMK AO2 SLP186 T01110094
KE16 - San Martin, California, USA
Distance from station: ESE 43km
Updated: 04/12/2022 21:15
Clear
Clear
 Wind from SE
Wind: SE 6 km/h
Temperature: 8°C
Dew Point: 8°C
Humidity: 100%
Barometer: 1020 hPa
Clouds: Clear
Visibility: 16 km
2022/12/05 05:15 KE16 050515Z AUTO 13003KT 10SM CLR 08/08 A3012 RMK AO2 PWINO PNO
 
KWVI - Watsonville, California, USA
Distance from station: SSE 44km
Updated: 04/12/2022 20:53
Overcast
Overcast
 Wind from N
Wind: N 6 km/h
Temperature: 9°C
Dew Point: 9°C
Humidity: 100%
Barometer: 1019.6 hPa
Clouds: Overcast
Visibility: 16 km
Cloud details: Overcast 274 m
2022/12/05 04:53 KWVI 050453Z AUTO 01003KT 10SM OVC009 09/09 A3011 RMK AO2 SLP195 T00940089
KHAF - Half Moon Bay, California, USA
Distance from station: WNW 50km
Updated: 04/12/2022 21:15
Overcast
Overcast
 Wind from SE
Wind: SE 9 km/h
Temperature: 11°C
Dew Point: 11°C
Humidity: 100%
Barometer: 1019 hPa
Clouds: Overcast
Visibility: 14 km
Cloud details: Partly cloudy 396 m
Mostly cloudy 732 m
Overcast 1036 m
2022/12/05 05:15 KHAF 050515Z AUTO 14005KT 9SM SCT013 BKN024 OVC034 11/11 A3009 RMK AO2
 
KHWD - Hayward, California, USA
Distance from station: N 44km
Updated: 04/12/2022 20:54
Mostly cloudy
Mostly cloudy
 Wind from E
Wind: E 6 km/h
Temperature: 11°C
Dew Point: 9°C
Humidity: 88%
Barometer: 1019 hPa
Clouds: Mostly cloudy
Visibility: 16 km
Cloud details: Mostly cloudy 1524 m
2022/12/05 04:54 KHWD 050454Z 10003KT 10SM BKN050 11/09 A3009 RMK AO2 RAE01 SLP198 P0000 T01060089
KLVK - Livermore, California, USA
Distance from station: NNE 51km
Updated: 04/12/2022 20:53
Clear
Clear
 Wind from calm
Wind: Calm
Temperature: 11°C
Dew Point: 7°C
Humidity: 77%
Barometer: 1018.6 hPa
Clouds: Clear
Visibility: 16 km
2022/12/05 04:53 KLVK 050453Z 00000KT 10SM CLR 11/07 A3008 RMK AO2 SLP184 T01060072